createdAt,value
2018-12-06T00:00:27.679Z,8.10
2018-12-06T00:02:54.462Z,8.73
2018-12-06T00:05:20.907Z,8.13
2018-12-06T00:07:50.477Z,8.07
2018-12-06T00:10:16.959Z,8.57
2018-12-06T00:12:43.367Z,8.03
2018-12-06T00:15:21.565Z,8.93
2018-12-06T00:17:47.956Z,8.70
2018-12-06T00:20:14.779Z,8.20
2018-12-06T00:22:41.173Z,8.87
2018-12-06T00:25:07.592Z,9.93
2018-12-06T00:27:34.011Z,8.53
2018-12-06T00:30:12.709Z,8.63
2018-12-06T00:32:39.463Z,9.47
2018-12-06T00:35:05.934Z,9.57
2018-12-06T00:37:32.362Z,9.20
2018-12-06T00:39:59.991Z,9.00
2018-12-06T00:42:26.388Z,9.67
2018-12-06T00:44:56.850Z,9.00
2018-12-06T00:47:23.289Z,9.10
2018-12-06T00:49:50.705Z,8.83
2018-12-06T00:52:17.087Z,9.27
2018-12-06T00:54:43.884Z,9.50
2018-12-06T00:57:10.338Z,8.87
2018-12-06T00:59:36.791Z,8.57
2018-12-06T01:02:05.258Z,8.80
2018-12-06T01:04:31.711Z,9.00
2018-12-06T01:06:58.122Z,8.60
2018-12-06T01:09:24.724Z,8.60
2018-12-06T01:11:52.276Z,8.63
2018-12-06T01:14:20.760Z,8.77
2018-12-06T01:16:47.335Z,8.03
2018-12-06T01:19:13.808Z,8.93
2018-12-06T01:21:40.337Z,8.90
2018-12-06T01:24:07.150Z,8.83
2018-12-06T01:26:33.592Z,9.10
2018-12-06T01:29:00.018Z,9.50
2018-12-06T01:31:27.595Z,9.40
2018-12-06T01:33:54.118Z,10.00
2018-12-06T01:36:20.566Z,9.77
2018-12-06T01:38:46.998Z,8.30
2018-12-06T01:41:13.430Z,9.17
2018-12-06T01:43:39.860Z,9.13
2018-12-06T01:46:06.298Z,9.17
2018-12-06T01:48:32.810Z,9.30
2018-12-06T01:50:59.258Z,9.93
2018-12-06T01:53:26.049Z,9.57
2018-12-06T01:55:52.699Z,8.90
2018-12-06T01:58:19.074Z,9.73
2018-12-06T02:00:45.891Z,9.50
2018-12-06T02:03:12.660Z,10.13
2018-12-06T02:05:39.093Z,9.83
2018-12-06T02:08:05.532Z,10.37
2018-12-06T02:10:32.398Z,11.03
2018-12-06T02:12:58.971Z,9.97
2018-12-06T02:15:25.470Z,10.13
2018-12-06T02:17:51.863Z,10.17
2018-12-06T02:20:18.300Z,11.37
2018-12-06T02:22:44.701Z,10.60
2018-12-06T02:25:11.146Z,10.63
2018-12-06T02:27:37.575Z,10.83
2018-12-06T02:30:04.989Z,11.80
2018-12-06T02:32:31.450Z,11.63
2018-12-06T02:34:59.019Z,11.57
2018-12-06T02:37:25.544Z,11.47
2018-12-06T02:39:52.383Z,12.03
2018-12-06T02:42:18.837Z,12.37
2018-12-06T02:44:45.270Z,11.97
2018-12-06T02:47:11.736Z,11.53
2018-12-06T02:49:38.159Z,12.23
2018-12-06T02:52:04.675Z,12.93
2018-12-06T02:54:31.181Z,13.47
2018-12-06T02:56:57.718Z,12.90
2018-12-06T02:59:24.100Z,14.17
2018-12-06T03:01:50.545Z,12.50
2018-12-06T03:04:17.030Z,14.57
2018-12-06T03:06:43.641Z,14.20
2018-12-06T03:09:10.091Z,14.90
2018-12-06T03:11:36.623Z,14.03
2018-12-06T03:14:03.116Z,15.50
2018-12-06T03:16:29.585Z,15.90
2018-12-06T03:18:56.129Z,15.37
2018-12-06T03:21:22.564Z,15.53
2018-12-06T03:23:48.964Z,16.57
2018-12-06T03:26:15.438Z,15.90
2018-12-06T03:28:41.829Z,15.70
2018-12-06T03:31:08.296Z,15.73
2018-12-06T03:33:34.874Z,15.87
2018-12-06T03:36:01.507Z,15.93
2018-12-06T03:38:27.925Z,17.30
2018-12-06T03:40:54.378Z,17.33
2018-12-06T03:43:20.797Z,16.73
2018-12-06T03:45:47.524Z,17.20
2018-12-06T03:48:13.937Z,16.47
2018-12-06T03:50:40.401Z,18.30
2018-12-06T03:53:06.803Z,17.47
2018-12-06T03:55:33.267Z,17.13
2018-12-06T03:57:59.728Z,16.53
2018-12-06T04:00:26.154Z,17.43
2018-12-06T04:02:52.591Z,18.63
2018-12-06T04:05:19.376Z,18.37
2018-12-06T04:07:45.855Z,16.97
2018-12-06T04:10:12.734Z,17.93
2018-12-06T04:12:39.164Z,18.50
2018-12-06T04:15:05.731Z,17.00
2018-12-06T04:17:32.219Z,17.60
2018-12-06T04:19:58.646Z,18.17
2018-12-06T04:22:25.284Z,17.83
2018-12-06T04:24:51.692Z,16.73
2018-12-06T04:27:18.166Z,16.67
2018-12-06T04:29:44.564Z,17.03
2018-12-06T04:32:11.004Z,16.33
2018-12-06T04:34:37.461Z,17.60
2018-12-06T04:37:04.000Z,15.47
2018-12-06T04:39:30.449Z,17.60
2018-12-06T04:41:57.871Z,17.37
2018-12-06T04:44:24.686Z,16.63
2018-12-06T04:46:51.223Z,16.67
2018-12-06T04:49:18.002Z,17.27
2018-12-06T04:51:44.490Z,17.23
2018-12-06T04:54:10.996Z,16.37
2018-12-06T04:56:37.421Z,16.80
2018-12-06T04:59:03.921Z,16.30
2018-12-06T05:01:30.405Z,16.90
2018-12-06T05:03:56.782Z,15.43
2018-12-06T05:06:23.215Z,16.40
2018-12-06T05:08:49.684Z,15.07
2018-12-06T05:11:16.425Z,14.77
2018-12-06T05:13:42.840Z,17.10
2018-12-06T05:16:09.221Z,17.20
2018-12-06T05:18:35.663Z,17.70
2018-12-06T05:21:02.425Z,17.20
2018-12-06T05:23:28.842Z,16.77
2018-12-06T05:25:55.671Z,17.30
2018-12-06T05:28:22.332Z,18.33
2018-12-06T05:30:48.797Z,18.03
2018-12-06T05:33:15.615Z,17.93
2018-12-06T05:35:42.007Z,17.70
2018-12-06T05:38:08.514Z,18.00
2018-12-06T05:40:35.319Z,17.67
2018-12-06T05:43:01.763Z,18.00
2018-12-06T05:45:28.171Z,17.60
2018-12-06T05:47:54.984Z,18.43
2018-12-06T05:50:21.431Z,18.07
2018-12-06T05:52:47.964Z,18.90
2018-12-06T05:55:14.438Z,18.43
2018-12-06T05:57:40.912Z,18.90
2018-12-06T06:00:07.514Z,18.50
2018-12-06T06:02:34.322Z,19.00
2018-12-06T06:05:01.121Z,17.70
2018-12-06T06:07:27.565Z,20.30
2018-12-06T06:09:53.983Z,20.63
2018-12-06T06:12:20.383Z,19.93
2018-12-06T06:14:46.823Z,18.40
2018-12-06T06:17:13.299Z,19.77
2018-12-06T06:19:40.116Z,19.57
2018-12-06T06:22:06.551Z,19.87
2018-12-06T06:24:32.989Z,21.67
2018-12-06T06:27:00.381Z,19.10
2018-12-06T06:29:26.858Z,21.23
2018-12-06T06:31:53.321Z,20.80
2018-12-06T06:34:19.763Z,19.90
2018-12-06T06:36:46.216Z,19.33
2018-12-06T06:39:12.714Z,21.33
2018-12-06T06:41:39.590Z,21.50
2018-12-06T06:44:06.104Z,21.03
2018-12-06T06:46:32.599Z,20.20
2018-12-06T06:48:59.031Z,19.80
2018-12-06T06:51:25.479Z,19.27
2018-12-06T06:53:51.920Z,20.00
2018-12-06T06:56:18.489Z,19.07
2018-12-06T06:58:44.986Z,19.93
2018-12-06T07:01:11.375Z,20.73
2018-12-06T07:03:37.801Z,20.63
2018-12-06T07:06:04.380Z,21.23
2018-12-06T07:08:30.864Z,21.17
2018-12-06T07:10:58.269Z,20.23
2018-12-06T07:13:25.101Z,19.43
2018-12-06T07:15:51.510Z,19.87
2018-12-06T07:18:18.272Z,19.90
2018-12-06T07:20:45.295Z,19.13
2018-12-06T07:23:11.744Z,18.97
2018-12-06T07:25:46.075Z,20.30
2018-12-06T07:28:07.112Z,19.87
2018-12-06T07:30:34.679Z,19.83
2018-12-06T07:33:01.152Z,18.87
2018-12-06T07:35:27.562Z,19.33
2018-12-06T07:37:54.021Z,20.10
2018-12-06T07:40:20.875Z,21.10
2018-12-06T07:42:47.417Z,19.80
2018-12-06T07:45:13.932Z,21.60
2018-12-06T07:47:40.412Z,20.77
2018-12-06T07:50:07.300Z,21.30
2018-12-06T07:52:33.750Z,20.07
2018-12-06T07:55:00.198Z,19.17
2018-12-06T07:57:26.657Z,20.10
2018-12-06T07:59:53.157Z,20.40
2018-12-06T08:02:19.593Z,21.00
2018-12-06T08:04:46.098Z,18.40
2018-12-06T08:07:12.644Z,19.40
2018-12-06T08:09:39.177Z,20.97
2018-12-06T08:12:07.136Z,19.57
2018-12-06T08:14:33.655Z,20.40
2018-12-06T08:17:00.214Z,21.27
2018-12-06T08:19:27.068Z,22.53
2018-12-06T08:21:53.618Z,24.03
2018-12-06T08:24:20.122Z,21.67
2018-12-06T08:26:46.520Z,21.33
2018-12-06T08:29:13.056Z,21.83
2018-12-06T08:31:39.538Z,21.40
2018-12-06T08:34:06.648Z,21.73
2018-12-06T08:36:33.485Z,21.13
2018-12-06T08:38:59.882Z,22.20
2018-12-06T08:41:26.629Z,22.40
2018-12-06T08:43:53.094Z,23.30
2018-12-06T08:46:19.498Z,22.73
2018-12-06T08:48:45.959Z,24.43
2018-12-06T08:51:12.536Z,22.10
2018-12-06T08:53:38.992Z,21.63
2018-12-06T08:56:05.427Z,23.63
2018-12-06T08:58:32.318Z,23.27
2018-12-06T09:00:58.758Z,23.20
2018-12-06T09:03:25.255Z,22.73
2018-12-06T09:05:52.046Z,23.23
2018-12-06T09:08:18.683Z,21.67
2018-12-06T09:10:51.317Z,22.97
2018-12-06T09:13:13.558Z,21.83
2018-12-06T09:15:41.242Z,23.47
2018-12-06T09:18:07.826Z,23.37
2018-12-06T09:20:34.355Z,24.13
2018-12-06T09:23:00.790Z,22.40
2018-12-06T09:25:27.212Z,22.63
2018-12-06T09:27:53.623Z,22.93
2018-12-06T09:30:20.110Z,21.93
2018-12-06T09:32:46.640Z,22.73
2018-12-06T09:35:13.472Z,23.03
2018-12-06T09:37:40.021Z,22.50
2018-12-06T09:40:06.604Z,23.80
2018-12-06T09:42:34.661Z,26.87
2018-12-06T09:45:01.378Z,25.90
2018-12-06T09:47:28.247Z,25.47
2018-12-06T09:49:55.039Z,26.67
2018-12-06T09:52:21.848Z,23.60
2018-12-06T09:54:48.736Z,24.73
2018-12-06T09:57:15.145Z,24.73
2018-12-06T09:59:41.587Z,24.37
2018-12-06T10:02:08.066Z,24.93
2018-12-06T10:04:34.504Z,24.80
2018-12-06T10:07:00.993Z,24.73
2018-12-06T10:09:27.504Z,25.00
2018-12-06T10:11:53.969Z,25.47
2018-12-06T10:14:20.871Z,26.17
2018-12-06T10:16:47.314Z,28.50
2018-12-06T10:19:14.100Z,28.87
2018-12-06T10:21:40.544Z,27.13
2018-12-06T10:24:06.993Z,28.87
2018-12-06T10:26:33.447Z,26.07
2018-12-06T10:28:59.870Z,27.83
2018-12-06T10:31:26.669Z,27.50
2018-12-06T10:33:53.100Z,25.83
2018-12-06T10:36:19.540Z,25.23
2018-12-06T10:38:45.945Z,24.17
2018-12-06T10:41:14.503Z,20.93
2018-12-06T10:43:47.570Z,20.93
2018-12-06T10:46:14.000Z,21.73
2018-12-06T10:48:40.386Z,21.20
2018-12-06T10:51:17.892Z,19.63
2018-12-06T10:53:44.313Z,19.10
2018-12-06T10:56:10.766Z,17.93
2018-12-06T10:58:37.291Z,17.97
2018-12-06T11:01:08.041Z,17.47
2018-12-06T11:03:36.515Z,19.83
2018-12-06T11:06:02.968Z,19.73
2018-12-06T11:08:29.394Z,17.13
2018-12-06T11:10:56.182Z,17.50
2018-12-06T11:13:22.610Z,16.87
2018-12-06T11:15:49.074Z,17.70
2018-12-06T11:18:15.513Z,15.80
2018-12-06T11:20:41.960Z,16.83
2018-12-06T11:23:08.519Z,15.83
2018-12-06T11:25:34.928Z,16.03
2018-12-06T11:28:01.752Z,17.23
2018-12-06T11:30:28.163Z,17.13
2018-12-06T11:32:54.673Z,17.53
2018-12-06T11:35:21.403Z,16.23
2018-12-06T11:37:48.688Z,17.80
2018-12-06T11:40:15.244Z,16.90
2018-12-06T11:42:42.595Z,18.23
2018-12-06T11:45:09.051Z,17.63
2018-12-06T11:47:36.270Z,18.03
2018-12-06T11:50:04.769Z,18.93
2018-12-06T11:52:31.650Z,19.00
2018-12-06T11:54:58.135Z,17.43
2018-12-06T11:57:25.331Z,17.47
2018-12-06T11:59:52.281Z,16.63
2018-12-06T12:02:19.321Z,18.50
2018-12-06T12:04:45.729Z,19.10
2018-12-06T12:07:12.177Z,17.57
2018-12-06T12:09:38.843Z,15.57
2018-12-06T12:12:05.248Z,18.03
2018-12-06T12:14:32.146Z,15.20
2018-12-06T12:16:58.635Z,14.93
2018-12-06T12:19:25.198Z,15.60
2018-12-06T12:21:51.637Z,14.67
2018-12-06T12:24:18.130Z,14.00
2018-12-06T12:26:45.099Z,13.80
2018-12-06T12:29:11.965Z,12.97
2018-12-06T12:31:38.413Z,11.93
2018-12-06T12:34:04.966Z,11.03
2018-12-06T12:36:31.435Z,10.67
2018-12-06T12:38:57.948Z,10.83
2018-12-06T12:41:24.432Z,9.93
2018-12-06T12:43:50.859Z,10.77
2018-12-06T12:46:18.490Z,9.80
2018-12-06T12:48:45.041Z,9.77
2018-12-06T12:51:11.623Z,9.87
2018-12-06T12:53:38.169Z,10.00
2018-12-06T12:56:04.712Z,9.80
2018-12-06T12:58:31.222Z,9.23
2018-12-06T13:00:58.027Z,10.53
2018-12-06T13:03:24.684Z,9.77
2018-12-06T13:05:51.111Z,10.17
2018-12-06T13:08:17.671Z,10.50
2018-12-06T13:10:44.101Z,10.00
2018-12-06T13:13:10.917Z,10.47
2018-12-06T13:15:37.385Z,11.00
2018-12-06T13:18:03.921Z,9.93
2018-12-06T13:20:30.439Z,10.17
2018-12-06T13:22:57.227Z,10.20
2018-12-06T13:25:23.636Z,11.53
2018-12-06T13:27:50.087Z,10.67
2018-12-06T13:30:16.512Z,11.33
2018-12-06T13:32:42.998Z,10.23
2018-12-06T13:35:09.410Z,9.63
2018-12-06T13:37:35.858Z,10.03
2018-12-06T13:40:03.378Z,10.30
2018-12-06T13:42:30.068Z,9.70
2018-12-06T13:44:56.861Z,10.37
2018-12-06T13:47:23.368Z,10.70
2018-12-06T13:49:50.679Z,9.97
2018-12-06T13:52:17.156Z,9.60
2018-12-06T13:54:43.902Z,9.87
2018-12-06T13:57:10.665Z,8.90
2018-12-06T13:59:37.087Z,9.77
2018-12-06T14:02:04.009Z,10.37
2018-12-06T14:04:30.795Z,9.23
2018-12-06T14:06:57.306Z,9.93
2018-12-06T14:09:23.779Z,10.20
2018-12-06T14:11:50.599Z,10.43
2018-12-06T14:14:17.159Z,10.50
2018-12-06T14:16:43.926Z,12.40
2018-12-06T14:19:10.376Z,10.73
2018-12-06T14:21:36.912Z,10.93
2018-12-06T14:24:03.334Z,9.53
2018-12-06T14:26:29.806Z,9.53
2018-12-06T14:28:56.234Z,10.00
2018-12-06T14:31:22.719Z,8.93
2018-12-06T14:33:49.205Z,8.90
2018-12-06T14:36:15.744Z,9.13
2018-12-06T14:38:42.092Z,8.93
2018-12-06T14:41:08.558Z,10.90
2018-12-06T14:43:35.153Z,10.90
2018-12-06T14:46:01.832Z,11.03
2018-12-06T14:48:28.766Z,11.40
2018-12-06T14:50:55.661Z,12.10
2018-12-06T14:53:22.216Z,11.70
2018-12-06T14:55:49.002Z,11.27
2018-12-06T14:58:16.340Z,11.03
2018-12-06T15:00:43.632Z,10.27
2018-12-06T15:03:10.142Z,10.30
2018-12-06T15:05:36.554Z,9.77
2018-12-06T15:08:03.015Z,9.87
2018-12-06T15:10:29.429Z,9.97
2018-12-06T15:12:55.927Z,11.17
2018-12-06T15:15:22.371Z,10.83
2018-12-06T15:17:48.805Z,9.83
2018-12-06T15:20:15.279Z,9.87
2018-12-06T15:22:41.740Z,10.23
2018-12-06T15:25:08.504Z,10.20
2018-12-06T15:27:35.475Z,10.33
2018-12-06T15:30:02.346Z,9.67
2018-12-06T15:32:29.106Z,8.70
2018-12-06T15:34:56.495Z,8.87
2018-12-06T15:37:23.134Z,8.80
2018-12-06T15:39:49.647Z,9.10
2018-12-06T15:42:16.093Z,8.03
2018-12-06T15:44:42.556Z,7.07
2018-12-06T15:47:09.001Z,8.00
2018-12-06T15:49:35.402Z,7.57
2018-12-06T15:52:01.894Z,7.50
2018-12-06T15:54:28.285Z,8.13
2018-12-06T15:56:55.052Z,8.60
2018-12-06T15:59:21.568Z,8.67
2018-12-06T16:01:48.287Z,10.63
2018-12-06T16:04:14.683Z,10.03
2018-12-06T16:06:41.122Z,9.70
2018-12-06T16:09:07.621Z,10.83
2018-12-06T16:11:34.088Z,9.13
2018-12-06T16:14:00.598Z,11.50
2018-12-06T16:16:27.135Z,9.70
2018-12-06T16:18:53.629Z,9.23
2018-12-06T16:21:20.063Z,9.37
2018-12-06T16:23:46.480Z,9.20
2018-12-06T16:26:13.017Z,9.67
2018-12-06T16:28:39.485Z,9.33
2018-12-06T16:31:05.950Z,9.53
2018-12-06T16:33:32.416Z,10.63
2018-12-06T16:35:58.851Z,10.47
2018-12-06T16:38:26.310Z,10.33
2018-12-06T16:40:52.780Z,10.47
2018-12-06T16:43:19.226Z,10.10
2018-12-06T16:45:45.767Z,11.03
2018-12-06T16:48:12.189Z,9.50
2018-12-06T16:50:38.785Z,10.93
2018-12-06T16:53:05.198Z,10.57
2018-12-06T16:55:31.674Z,11.40
2018-12-06T16:57:58.432Z,9.47
2018-12-06T17:00:24.844Z,9.80
2018-12-06T17:02:51.319Z,10.30
2018-12-06T17:05:17.743Z,9.47
2018-12-06T17:07:44.134Z,9.80
2018-12-06T17:10:10.931Z,12.00
2018-12-06T17:12:37.366Z,10.93
2018-12-06T17:15:04.916Z,10.80
2018-12-06T17:17:31.424Z,10.50
2018-12-06T17:19:57.981Z,9.90
2018-12-06T17:22:24.432Z,12.63
2018-12-06T17:24:51.014Z,13.03
2018-12-06T17:27:17.552Z,13.73
2018-12-06T17:29:44.139Z,12.47
2018-12-06T17:32:10.802Z,12.57
2018-12-06T17:34:37.910Z,11.80
2018-12-06T17:37:04.333Z,12.37
2018-12-06T17:39:30.760Z,12.63
2018-12-06T17:41:57.583Z,11.20
2018-12-06T17:44:24.114Z,12.23
2018-12-06T17:46:50.579Z,11.70
2018-12-06T17:49:17.060Z,9.97
2018-12-06T17:51:44.283Z,11.67
2018-12-06T17:54:10.750Z,10.60
2018-12-06T17:56:37.216Z,9.50
2018-12-06T17:59:03.971Z,9.07
2018-12-06T18:01:30.657Z,7.77
2018-12-06T18:03:57.117Z,7.63
2018-12-06T18:06:23.924Z,8.77
2018-12-06T18:08:50.344Z,8.63
2018-12-06T18:11:17.107Z,10.60
2018-12-06T18:13:44.107Z,9.33
2018-12-06T18:16:10.928Z,9.37
2018-12-06T18:18:40.454Z,10.00
2018-12-06T18:21:06.201Z,9.43
2018-12-06T18:23:33.023Z,10.13
2018-12-06T18:25:59.484Z,9.70
2018-12-06T18:28:25.868Z,10.53
2018-12-06T18:30:52.322Z,10.70
2018-12-06T18:33:18.799Z,10.03
2018-12-06T18:35:45.282Z,11.67
2018-12-06T18:38:11.883Z,12.97
2018-12-06T18:40:38.415Z,12.13
2018-12-06T18:43:05.248Z,11.97
2018-12-06T18:45:32.086Z,12.53
2018-12-06T18:47:58.843Z,12.00
2018-12-06T18:50:25.301Z,11.73
2018-12-06T18:52:52.001Z,10.03
2018-12-06T18:55:18.507Z,11.50
2018-12-06T18:57:44.962Z,11.20
2018-12-06T19:00:11.604Z,11.67
2018-12-06T19:02:38.027Z,12.73
2018-12-06T19:05:04.679Z,12.00
2018-12-06T19:07:31.248Z,11.63
2018-12-06T19:09:57.735Z,11.87
2018-12-06T19:12:24.585Z,13.03
2018-12-06T19:14:51.144Z,13.30
2018-12-06T19:17:17.603Z,13.30
2018-12-06T19:19:44.126Z,14.27
2018-12-06T19:22:11.096Z,12.87
2018-12-06T19:24:37.874Z,12.40
2018-12-06T19:27:04.652Z,14.93
2018-12-06T19:29:31.074Z,13.57
2018-12-06T19:31:57.882Z,13.20
2018-12-06T19:34:24.367Z,16.43
2018-12-06T19:36:50.801Z,16.57
2018-12-06T19:39:17.219Z,16.63
2018-12-06T19:41:43.600Z,15.87
2018-12-06T19:44:10.361Z,15.67
2018-12-06T19:46:37.250Z,14.27
2018-12-06T19:49:03.685Z,14.40
2018-12-06T19:51:30.757Z,15.27
2018-12-06T19:53:57.171Z,16.53
2018-12-06T19:56:23.604Z,16.37
2018-12-06T19:58:50.355Z,15.93
2018-12-06T20:01:17.236Z,14.70
2018-12-06T20:03:43.669Z,13.63
2018-12-06T20:06:10.199Z,15.37
2018-12-06T20:08:37.588Z,14.47
2018-12-06T20:11:04.328Z,14.40
2018-12-06T20:13:30.877Z,13.47
2018-12-06T20:15:57.329Z,12.43
2018-12-06T20:18:23.770Z,11.77
2018-12-06T20:20:50.664Z,12.47
2018-12-06T20:23:17.161Z,11.53
2018-12-06T20:25:43.686Z,11.80
2018-12-06T20:28:10.096Z,11.10
2018-12-06T20:30:36.707Z,12.77
2018-12-06T20:33:03.574Z,12.53
2018-12-06T20:35:31.006Z,12.37
2018-12-06T20:37:57.423Z,12.47
2018-12-06T20:40:23.924Z,11.40
2018-12-06T20:42:50.476Z,11.37
2018-12-06T20:45:16.911Z,11.63
2018-12-06T20:47:43.442Z,12.60
2018-12-06T20:50:10.284Z,11.87
2018-12-06T20:52:37.056Z,12.00
2018-12-06T20:55:05.681Z,12.10
2018-12-06T20:57:37.214Z,11.90
2018-12-06T21:00:01.124Z,11.80
2018-12-06T21:02:27.807Z,12.00
2018-12-06T21:04:54.293Z,12.60
2018-12-06T21:07:21.097Z,12.10
2018-12-06T21:09:47.669Z,12.10
2018-12-06T21:12:14.120Z,12.07
2018-12-06T21:14:40.497Z,12.07
2018-12-06T21:17:07.139Z,11.77
2018-12-06T21:19:33.710Z,11.83
2018-12-06T21:22:00.153Z,11.23
2018-12-06T21:24:26.571Z,10.90
2018-12-06T21:26:52.967Z,11.30
2018-12-06T21:29:19.821Z,11.40
2018-12-06T21:31:46.301Z,12.03
2018-12-06T21:34:13.002Z,10.67
2018-12-06T21:36:39.437Z,11.20
2018-12-06T21:39:06.018Z,11.53
2018-12-06T21:41:32.836Z,11.10
2018-12-06T21:44:00.246Z,10.20
2018-12-06T21:46:27.102Z,11.30
2018-12-06T21:48:54.262Z,11.73
2018-12-06T21:51:20.837Z,10.73
2018-12-06T21:53:47.375Z,11.33
2018-12-06T21:56:13.777Z,11.30
2018-12-06T21:58:40.214Z,11.57
2018-12-06T22:01:07.643Z,11.50
2018-12-06T22:03:34.142Z,11.50
2018-12-06T22:06:00.561Z,11.43
2018-12-06T22:08:27.110Z,12.03
2018-12-06T22:10:53.540Z,11.00
2018-12-06T22:13:19.983Z,11.37
2018-12-06T22:15:46.768Z,10.63
2018-12-06T22:18:13.181Z,11.43
2018-12-06T22:20:40.665Z,11.60
2018-12-06T22:23:07.588Z,12.00
2018-12-06T22:25:34.034Z,13.23
2018-12-06T22:28:00.488Z,11.83
2018-12-06T22:30:26.886Z,12.33
2018-12-06T22:32:53.426Z,12.30
2018-12-06T22:35:20.271Z,11.87
2018-12-06T22:37:46.818Z,12.27
2018-12-06T22:40:13.602Z,12.87
2018-12-06T22:42:40.152Z,12.77
2018-12-06T22:45:11.862Z,12.43
2018-12-06T22:47:38.388Z,13.10
2018-12-06T22:50:05.082Z,12.60
2018-12-06T22:52:31.622Z,12.20
2018-12-06T22:54:58.043Z,13.47
2018-12-06T22:57:24.362Z,13.93
2018-12-06T22:59:52.054Z,13.80
2018-12-06T23:02:18.471Z,14.43
2018-12-06T23:04:44.893Z,14.80
2018-12-06T23:07:11.442Z,15.73
2018-12-06T23:09:37.877Z,15.17
2018-12-06T23:12:04.303Z,13.63
2018-12-06T23:14:30.722Z,12.50
2018-12-06T23:16:57.189Z,14.10
2018-12-06T23:19:23.594Z,11.87
2018-12-06T23:21:50.141Z,10.93
2018-12-06T23:24:16.579Z,9.50
2018-12-06T23:26:43.062Z,10.20
2018-12-06T23:29:09.501Z,8.83
2018-12-06T23:31:35.989Z,9.33
2018-12-06T23:34:02.370Z,7.40
2018-12-06T23:36:28.814Z,8.30
2018-12-06T23:38:55.214Z,7.53
2018-12-06T23:41:21.640Z,7.10
2018-12-06T23:43:48.075Z,7.00
2018-12-06T23:46:14.510Z,6.30
2018-12-06T23:48:40.977Z,5.37
2018-12-06T23:51:33.627Z,5.90
2018-12-06T23:54:00.094Z,5.97
2018-12-06T23:56:26.502Z,5.80
2018-12-06T23:58:53.036Z,5.60
